Maupin, OR

4:18 AM PDT on July 28, 2016 (GMT -0700)
Sportsmans Park | | Change Station

Elev 2293 ft 45.22 °N, 121.40 °W | Updated 12 minutes ago

Clear
Clear
53.6 °F
Feels Like 53.6 °F
N
2.7
Wind Variable Wind from West

Today
High -- | Low -- °F
--% Chance of Precip.
Yesterday
High -- | Low -- °F
Precip. -- in
Pressure 30.05 in
Visibility 10.0 miles
Clouds Clear
Dew Point 46 °F
Humidity 74%
Rainfall 0.00 in
Snow Depth Not available.
5:46 AM 8:36 PM
Waning Crescent, 33% visible
METAR KRDM 281056Z AUTO 16004KT 10SM CLR 12/05 A3013 RMK AO2 SLP176 T01170050
Pressure 30.05 in
Visibility 10.0 miles
Clouds Clear
Dew Point 46 °F
Humidity 74%
Rainfall 0.00 in
Snow Depth Not available.
5:46 AM 8:36 PM
Waning Crescent, 33% visible
METAR KRDM 281056Z AUTO 16004KT 10SM CLR 12/05 A3013 RMK AO2 SLP176 T01170050

10-Day Weather Forecast

Almanac

Astronomy

Jul. 28, 2016 Rise Set
Actual Time
Civil Twilight
Nautical Twilight
Astronomical Twilight
Moon
Length of Visible Light
Length of Day
Tomorrow will be .
, % of the Moon is Illuminated

Today's Extremes

State Highs State Lows

Community

WunderPhotos

Upload Photos

1,928,082 photos uploaded!

WunderBlog® & News

Nearby

Air Quality

  Air Quality AQ Index Pollutant
Not available.

Snow Depth

Station Depth Elevation

Earthquake Activity

City Distance Mag. Time & Date
Minimum magnitude displayed is 2.5.

Coastal Water Temperatures

Place Temperature

Stations

Nearby Weather Stations

Station Location Temp. Windchill Dew Point Humidity Wind Precip. Elev Updated Type
                   

Watches & Warnings

There are currently no watches in effect.